createdAt,value
2019-06-27T00:00:58.039Z,1.12
2019-06-27T00:03:32.738Z,1.70
2019-06-27T00:06:07.790Z,1.53
2019-06-27T00:08:42.527Z,1.93
2019-06-27T00:11:17.283Z,2.08
2019-06-27T00:13:52.772Z,2.00
2019-06-27T00:16:27.376Z,1.57
2019-06-27T00:19:01.924Z,1.50
2019-06-27T00:21:36.347Z,1.85
2019-06-27T00:24:10.964Z,2.07
2019-06-27T00:26:56.694Z,1.70
2019-06-27T00:29:40.972Z,1.72
2019-06-27T00:32:15.133Z,2.10
2019-06-27T00:34:50.882Z,2.00
2019-06-27T00:37:25.417Z,1.95
2019-06-27T00:39:59.685Z,1.77
2019-06-27T00:45:17.880Z,2.27
2019-06-27T00:47:52.425Z,2.45
2019-06-27T00:50:27.231Z,2.55
2019-06-27T00:53:01.970Z,2.42
2019-06-27T00:55:54.708Z,2.42
2019-06-27T00:58:29.152Z,2.27
2019-06-27T01:01:03.683Z,2.42
2019-06-27T01:03:38.232Z,2.67
2019-06-27T01:06:12.672Z,2.50
2019-06-27T01:08:48.390Z,2.67
2019-06-27T01:11:23.000Z,2.60
2019-06-27T01:13:57.636Z,2.53
2019-06-27T01:16:32.238Z,2.75
2019-06-27T01:19:06.608Z,2.40
2019-06-27T01:21:41.094Z,2.20
2019-06-27T01:24:15.387Z,2.40
2019-06-27T01:26:49.724Z,2.30
2019-06-27T01:29:24.474Z,2.42
2019-06-27T01:31:59.063Z,2.05
2019-06-27T01:34:33.579Z,2.50
2019-06-27T01:37:07.808Z,2.10
2019-06-27T01:39:42.012Z,2.40
2019-06-27T01:42:16.430Z,2.35
2019-06-27T01:45:03.718Z,2.05
2019-06-27T01:47:38.922Z,2.40
2019-06-27T01:50:13.060Z,1.95
2019-06-27T01:52:48.084Z,2.02
2019-06-27T01:55:23.735Z,2.08
2019-06-27T01:57:58.173Z,2.55
2019-06-27T02:00:33.049Z,2.17
2019-06-27T02:03:07.634Z,2.22
2019-06-27T02:05:42.020Z,2.37
2019-06-27T02:08:16.537Z,2.40
2019-06-27T02:10:51.300Z,2.22
2019-06-27T02:13:25.975Z,2.37
2019-06-27T02:16:01.554Z,2.23
2019-06-27T02:18:36.093Z,2.52
2019-06-27T02:21:10.519Z,2.87
2019-06-27T02:23:45.475Z,2.62
2019-06-27T02:26:20.471Z,2.28
2019-06-27T02:28:55.398Z,2.80
2019-06-27T02:31:29.903Z,3.50
2019-06-27T02:34:06.891Z,3.20
2019-06-27T02:36:39.990Z,2.90
2019-06-27T02:39:14.474Z,2.50
2019-06-27T02:41:49.061Z,2.30
2019-06-27T02:44:23.501Z,2.15
2019-06-27T02:46:59.111Z,2.47
2019-06-27T02:49:33.915Z,3.08
2019-06-27T02:52:08.201Z,2.40
2019-06-27T02:54:42.302Z,2.37
2019-06-27T02:57:17.050Z,2.50
2019-06-27T02:59:51.520Z,2.52
2019-06-27T03:02:26.144Z,2.52
2019-06-27T03:05:00.563Z,2.55
2019-06-27T03:07:35.625Z,3.37
2019-06-27T03:10:10.557Z,3.27
2019-06-27T03:12:45.152Z,3.12
2019-06-27T03:15:19.550Z,3.05
2019-06-27T03:17:53.893Z,2.77
2019-06-27T03:20:29.075Z,2.75
2019-06-27T03:23:03.589Z,2.90
2019-06-27T03:25:38.604Z,2.70
2019-06-27T03:28:13.575Z,3.05
2019-06-27T03:30:49.136Z,2.92
2019-06-27T03:33:23.417Z,2.08
2019-06-27T03:35:57.773Z,2.22
2019-06-27T03:38:32.447Z,2.33
2019-06-27T03:41:07.349Z,2.55
2019-06-27T03:43:42.047Z,2.90
2019-06-27T03:46:16.318Z,2.65
2019-06-27T03:48:50.710Z,2.30
2019-06-27T03:51:25.254Z,2.15
2019-06-27T03:53:59.991Z,2.08
2019-06-27T03:56:34.672Z,2.30
2019-06-27T03:59:13.173Z,2.42
2019-06-27T04:01:45.864Z,2.10
2019-06-27T04:04:21.094Z,2.27
2019-06-27T04:06:55.765Z,2.17
2019-06-27T04:09:30.170Z,2.30
2019-06-27T04:12:04.823Z,2.15
2019-06-27T04:14:39.753Z,2.47
2019-06-27T04:17:14.678Z,2.12
2019-06-27T04:19:49.581Z,1.95
2019-06-27T04:22:24.021Z,2.12
2019-06-27T04:24:58.495Z,2.20
2019-06-27T04:27:32.929Z,2.20
2019-06-27T04:30:07.769Z,2.12
2019-06-27T04:33:00.233Z,2.27
2019-06-27T04:35:34.814Z,2.30
2019-06-27T04:38:09.540Z,2.12
2019-06-27T04:40:44.498Z,2.30
2019-06-27T04:43:19.341Z,2.10
2019-06-27T04:45:54.091Z,2.10
2019-06-27T04:48:28.433Z,2.40
2019-06-27T04:51:02.967Z,2.37
2019-06-27T04:53:37.722Z,2.30
2019-06-27T04:56:31.446Z,2.40
2019-06-27T04:59:06.421Z,2.12
2019-06-27T05:01:41.304Z,2.35
2019-06-27T05:04:15.931Z,2.37
2019-06-27T05:06:50.384Z,2.17
2019-06-27T05:09:44.123Z,2.45
2019-06-27T05:12:21.404Z,2.50
2019-06-27T05:14:56.000Z,2.60
2019-06-27T05:17:30.825Z,2.72
2019-06-27T05:20:05.325Z,2.85
2019-06-27T05:22:40.172Z,1.90
2019-06-27T05:25:15.148Z,1.90
2019-06-27T05:27:49.408Z,2.40
2019-06-27T05:30:23.978Z,2.65
2019-06-27T05:32:58.550Z,2.40
2019-06-27T05:35:33.145Z,2.20
2019-06-27T05:38:07.899Z,2.50
2019-06-27T05:40:42.650Z,2.17
2019-06-27T05:43:17.399Z,2.37
2019-06-27T05:45:52.141Z,2.70
2019-06-27T05:48:26.534Z,2.80
2019-06-27T05:51:01.515Z,3.05
2019-06-27T05:53:36.465Z,2.75
2019-06-27T05:56:10.720Z,2.87
2019-06-27T05:58:45.385Z,2.37
2019-06-27T06:01:19.853Z,2.20
2019-06-27T06:03:54.564Z,2.40
2019-06-27T06:06:29.171Z,2.42
2019-06-27T06:09:03.804Z,2.15
2019-06-27T06:11:38.229Z,2.72
2019-06-27T06:14:13.661Z,2.17
2019-06-27T06:16:49.067Z,2.00
2019-06-27T06:19:23.802Z,2.52
2019-06-27T06:22:17.141Z,2.05
2019-06-27T06:24:51.817Z,2.35
2019-06-27T06:27:26.322Z,2.55
2019-06-27T06:30:00.926Z,2.40
2019-06-27T06:32:38.405Z,2.47
2019-06-27T06:35:32.321Z,2.08
2019-06-27T06:38:07.725Z,2.25
2019-06-27T06:40:44.447Z,2.95
2019-06-27T06:43:19.285Z,2.40
2019-06-27T06:45:53.934Z,2.35
2019-06-27T06:48:28.600Z,2.45
2019-06-27T06:51:03.066Z,2.55
2019-06-27T06:53:38.297Z,2.35
2019-06-27T06:56:13.514Z,2.95
2019-06-27T06:58:48.261Z,2.98
2019-06-27T07:01:22.843Z,2.80
2019-06-27T07:03:57.263Z,2.70
2019-06-27T07:06:31.508Z,2.98
2019-06-27T07:09:25.091Z,2.50
2019-06-27T07:11:59.636Z,2.80
2019-06-27T07:14:34.426Z,2.98
2019-06-27T07:17:09.393Z,2.70
2019-06-27T07:19:44.470Z,2.27
2019-06-27T07:22:19.530Z,2.70
2019-06-27T07:24:54.086Z,3.20
2019-06-27T07:27:28.416Z,2.52
2019-06-27T07:30:02.696Z,2.83
2019-06-27T07:32:37.866Z,2.40
2019-06-27T07:35:12.688Z,2.37
2019-06-27T07:37:47.824Z,3.27
2019-06-27T07:40:24.926Z,2.80
2019-06-27T07:42:59.547Z,2.62
2019-06-27T07:45:34.497Z,2.40
2019-06-27T07:48:10.152Z,2.60
2019-06-27T07:50:44.883Z,2.35
2019-06-27T07:53:19.128Z,3.10
2019-06-27T07:55:53.799Z,2.95
2019-06-27T07:58:28.256Z,2.65
2019-06-27T08:01:02.796Z,2.90
2019-06-27T08:03:37.648Z,2.60
2019-06-27T08:06:12.396Z,3.25
2019-06-27T08:08:46.847Z,2.77
2019-06-27T08:11:21.285Z,2.85
2019-06-27T08:13:55.913Z,2.67
2019-06-27T08:16:30.264Z,3.33
2019-06-27T08:19:04.914Z,2.90
2019-06-27T08:21:39.899Z,3.47
2019-06-27T08:24:34.559Z,2.98
2019-06-27T08:27:09.846Z,2.72
2019-06-27T08:29:44.423Z,3.10
2019-06-27T08:32:19.798Z,3.40
2019-06-27T08:34:54.431Z,3.17
2019-06-27T08:37:28.904Z,3.05
2019-06-27T08:40:03.492Z,2.20
2019-06-27T08:42:39.118Z,2.77
2019-06-27T08:45:15.252Z,2.87
2019-06-27T08:47:49.975Z,2.85
2019-06-27T08:50:24.555Z,2.52
2019-06-27T08:53:01.432Z,2.87
2019-06-27T08:55:35.266Z,3.22
2019-06-27T08:58:09.795Z,2.72
2019-06-27T09:00:46.342Z,2.40
2019-06-27T09:03:21.343Z,2.85
2019-06-27T09:05:55.913Z,2.72
2019-06-27T09:08:50.222Z,2.60
2019-06-27T09:11:25.159Z,2.65
2019-06-27T09:13:59.520Z,2.60
2019-06-27T09:16:34.074Z,2.80
2019-06-27T09:19:08.744Z,2.47
2019-06-27T09:21:43.518Z,2.50
2019-06-27T09:24:18.381Z,2.52
2019-06-27T09:26:53.020Z,2.40
2019-06-27T09:29:27.805Z,2.45
2019-06-27T09:32:02.590Z,2.33
2019-06-27T09:34:37.031Z,2.40
2019-06-27T09:37:11.581Z,1.92
2019-06-27T09:39:46.142Z,1.90
2019-06-27T09:42:20.406Z,1.95
2019-06-27T09:44:55.162Z,1.72
2019-06-27T09:47:30.590Z,2.05
2019-06-27T09:50:04.619Z,1.98
2019-06-27T09:52:39.881Z,2.30
2019-06-27T09:55:14.581Z,2.25
2019-06-27T09:57:48.893Z,2.52
2019-06-27T10:00:23.776Z,2.22
2019-06-27T10:02:58.408Z,2.90
2019-06-27T10:05:34.210Z,3.00
2019-06-27T10:08:08.844Z,2.55
2019-06-27T10:10:43.815Z,2.65
2019-06-27T10:13:18.509Z,2.12
2019-06-27T10:15:52.730Z,2.75
2019-06-27T10:18:27.120Z,2.83
2019-06-27T10:21:01.800Z,2.70
2019-06-27T10:23:35.959Z,2.72
2019-06-27T10:26:10.688Z,3.00
2019-06-27T10:28:45.402Z,3.45
2019-06-27T10:31:20.038Z,2.55
2019-06-27T10:33:53.967Z,3.30
2019-06-27T10:36:28.802Z,2.72
2019-06-27T10:39:03.439Z,2.55
2019-06-27T10:41:37.891Z,2.17
2019-06-27T10:44:12.200Z,2.25
2019-06-27T10:46:46.772Z,2.20
2019-06-27T10:49:21.980Z,2.15
2019-06-27T10:51:56.743Z,2.45
2019-06-27T10:54:31.191Z,2.40
2019-06-27T10:57:06.081Z,2.72
2019-06-27T10:59:40.842Z,2.50
2019-06-27T11:02:16.177Z,2.62
2019-06-27T11:04:51.042Z,3.12
2019-06-27T11:07:26.155Z,3.00
2019-06-27T11:10:00.454Z,2.52
2019-06-27T11:12:34.928Z,3.50
2019-06-27T11:15:09.279Z,3.37
2019-06-27T11:17:43.943Z,2.87
2019-06-27T11:20:38.484Z,3.12
2019-06-27T11:23:12.852Z,3.08
2019-06-27T11:25:47.525Z,2.90
2019-06-27T11:28:22.755Z,2.83
2019-06-27T11:30:57.686Z,2.87
2019-06-27T11:33:33.242Z,2.80
2019-06-27T11:36:08.684Z,3.33
2019-06-27T11:38:42.986Z,2.90
2019-06-27T11:41:17.703Z,2.95
2019-06-27T11:43:52.204Z,3.30
2019-06-27T11:46:45.727Z,2.98
2019-06-27T11:49:20.341Z,2.95
2019-06-27T11:51:55.126Z,3.12
2019-06-27T11:54:29.975Z,2.80
2019-06-27T11:57:04.270Z,3.00
2019-06-27T11:59:39.024Z,3.25
2019-06-27T12:02:13.519Z,3.10
2019-06-27T12:04:48.390Z,3.17
2019-06-27T12:07:23.687Z,2.90
2019-06-27T12:10:17.348Z,2.77
2019-06-27T12:12:52.086Z,3.08
2019-06-27T12:15:26.533Z,3.10
2019-06-27T12:18:02.239Z,3.80
2019-06-27T12:20:37.116Z,3.25
2019-06-27T12:23:11.987Z,2.95
2019-06-27T12:25:46.879Z,2.87
2019-06-27T12:28:21.471Z,2.58
2019-06-27T12:30:56.052Z,2.72
2019-06-27T12:34:05.724Z,3.20
2019-06-27T12:36:28.501Z,2.83
2019-06-27T12:39:02.913Z,3.85
2019-06-27T12:41:56.377Z,3.37
2019-06-27T12:44:31.185Z,2.93
2019-06-27T12:47:06.196Z,2.72
2019-06-27T12:49:56.870Z,2.52
2019-06-27T12:52:16.273Z,2.35
2019-06-27T12:54:51.482Z,2.40
2019-06-27T12:57:25.588Z,1.98
2019-06-27T12:59:59.975Z,1.85
2019-06-27T13:02:34.886Z,2.05
2019-06-27T13:05:09.307Z,1.85
2019-06-27T13:07:44.091Z,2.17
2019-06-27T13:10:19.440Z,2.47
2019-06-27T13:12:54.152Z,2.02
2019-06-27T13:15:28.594Z,2.22
2019-06-27T13:18:03.390Z,2.22
2019-06-27T13:20:38.044Z,2.25
2019-06-27T13:23:12.818Z,2.00
2019-06-27T13:25:47.524Z,1.80
2019-06-27T13:28:22.188Z,2.33
2019-06-27T13:30:56.592Z,1.95
2019-06-27T13:33:31.753Z,2.33
2019-06-27T13:36:06.276Z,2.20
2019-06-27T13:38:40.912Z,2.20
2019-06-27T13:41:16.188Z,2.22
2019-06-27T13:43:50.696Z,2.47
2019-06-27T13:46:25.450Z,2.67
2019-06-27T13:49:19.186Z,2.70
2019-06-27T13:51:55.332Z,3.00
2019-06-27T13:54:29.639Z,2.25
2019-06-27T13:57:04.258Z,1.95
2019-06-27T13:59:38.957Z,2.00
2019-06-27T14:02:14.184Z,1.98
2019-06-27T14:04:57.194Z,1.60
2019-06-27T14:07:24.756Z,2.00
2019-06-27T14:10:00.073Z,1.50
2019-06-27T14:12:34.770Z,2.30
2019-06-27T14:15:09.528Z,1.70
2019-06-27T14:17:44.374Z,1.93
2019-06-27T14:20:19.007Z,2.02
2019-06-27T14:22:53.695Z,2.10
2019-06-27T14:25:27.893Z,2.30
2019-06-27T14:28:02.276Z,2.12
2019-06-27T14:30:36.764Z,2.20
2019-06-27T14:33:30.606Z,1.98
2019-06-27T14:36:05.233Z,2.35
2019-06-27T14:38:39.539Z,3.23
2019-06-27T14:41:15.007Z,2.80
2019-06-27T14:43:49.757Z,2.20
2019-06-27T14:46:25.408Z,2.20
2019-06-27T14:49:00.055Z,2.30
2019-06-27T14:51:34.619Z,2.70
2019-06-27T14:54:09.452Z,2.02
2019-06-27T14:56:43.957Z,2.02
2019-06-27T14:59:18.811Z,1.87
2019-06-27T15:01:52.977Z,1.90
2019-06-27T15:04:28.258Z,1.82
2019-06-27T15:07:02.846Z,1.83
2019-06-27T15:09:37.264Z,1.85
2019-06-27T15:12:11.623Z,1.90
2019-06-27T15:14:50.424Z,1.70
2019-06-27T15:17:25.439Z,1.98
2019-06-27T15:19:59.923Z,1.80
2019-06-27T15:22:34.739Z,1.60
2019-06-27T15:25:09.730Z,2.50
2019-06-27T15:27:44.246Z,2.40
2019-06-27T15:30:18.805Z,2.55
2019-06-27T15:32:53.481Z,2.85
2019-06-27T15:35:28.215Z,3.00
2019-06-27T15:38:03.454Z,2.75
2019-06-27T15:40:38.103Z,2.77
2019-06-27T15:43:12.989Z,3.50
2019-06-27T15:45:47.873Z,3.62
2019-06-27T15:48:22.832Z,3.52
2019-06-27T15:50:57.685Z,3.65
2019-06-27T15:53:32.051Z,3.47
2019-06-27T15:56:06.482Z,3.85
2019-06-27T15:58:41.139Z,3.60
2019-06-27T16:01:15.544Z,3.30
2019-06-27T16:03:50.302Z,3.20
2019-06-27T16:06:25.889Z,2.73
2019-06-27T16:09:00.353Z,2.87
2019-06-27T16:11:34.713Z,2.87
2019-06-27T16:14:09.386Z,3.00
2019-06-27T16:16:44.082Z,2.60
2019-06-27T16:19:18.794Z,2.60
2019-06-27T16:21:53.971Z,2.45
2019-06-27T16:24:29.781Z,3.22
2019-06-27T16:27:04.548Z,3.20
2019-06-27T16:29:39.295Z,2.25
2019-06-27T16:32:14.060Z,2.23
2019-06-27T16:34:48.605Z,2.37
2019-06-27T16:37:23.915Z,1.77
2019-06-27T16:39:58.520Z,1.62
2019-06-27T16:42:33.238Z,1.75
2019-06-27T16:45:08.257Z,1.50
2019-06-27T16:47:43.579Z,1.40
2019-06-27T16:50:19.290Z,1.72
2019-06-27T16:52:53.597Z,1.75
2019-06-27T16:55:28.042Z,1.57
2019-06-27T16:58:02.591Z,1.70
2019-06-27T17:00:38.591Z,1.80
2019-06-27T17:03:12.829Z,1.57
2019-06-27T17:05:48.086Z,1.97
2019-06-27T17:08:22.344Z,1.63
2019-06-27T17:10:58.825Z,1.42
2019-06-27T17:13:32.770Z,2.00
2019-06-27T17:16:07.063Z,1.77
2019-06-27T17:18:41.521Z,2.02
2019-06-27T17:21:16.409Z,2.08
2019-06-27T17:23:50.876Z,2.00
2019-06-27T17:26:25.807Z,1.90
2019-06-27T17:29:04.318Z,1.87
2019-06-27T17:31:40.096Z,2.03
2019-06-27T17:34:15.135Z,1.90
2019-06-27T17:36:57.538Z,3.10
2019-06-27T17:39:26.809Z,2.50
2019-06-27T17:42:02.228Z,3.20
2019-06-27T17:44:37.461Z,2.30
2019-06-27T17:47:11.999Z,2.50
2019-06-27T17:49:49.075Z,2.65
2019-06-27T17:52:22.733Z,2.60
2019-06-27T17:54:58.056Z,2.30
2019-06-27T17:57:32.399Z,2.52
2019-06-27T18:00:07.140Z,2.40
2019-06-27T18:02:42.434Z,2.80
2019-06-27T18:05:18.477Z,2.67
2019-06-27T18:07:53.456Z,2.20
2019-06-27T18:10:28.607Z,2.17
2019-06-27T18:13:23.837Z,2.15
2019-06-27T18:15:57.105Z,2.12
2019-06-27T18:18:32.758Z,2.60
2019-06-27T18:21:26.587Z,2.17
2019-06-27T18:24:01.677Z,2.17
2019-06-27T18:26:36.265Z,2.03
2019-06-27T18:29:11.177Z,2.33
2019-06-27T18:31:45.697Z,2.40
2019-06-27T18:34:20.294Z,2.22
2019-06-27T18:36:56.471Z,1.90
2019-06-27T18:39:31.372Z,2.12
2019-06-27T18:42:05.906Z,2.00
2019-06-27T18:44:41.878Z,2.08
2019-06-27T18:47:16.481Z,2.37
2019-06-27T18:49:51.196Z,1.98
2019-06-27T18:52:25.696Z,1.70
2019-06-27T18:55:00.297Z,1.82
2019-06-27T18:57:34.414Z,1.90
2019-06-27T19:00:09.527Z,2.10
2019-06-27T19:02:43.988Z,2.00
2019-06-27T19:05:18.582Z,1.95
2019-06-27T19:07:52.975Z,2.45
2019-06-27T19:10:28.135Z,1.80
2019-06-27T19:13:03.537Z,1.92
2019-06-27T19:15:38.560Z,2.12
2019-06-27T19:18:31.275Z,2.07
2019-06-27T19:21:08.772Z,2.05
2019-06-27T19:23:52.358Z,2.00
2019-06-27T19:26:26.919Z,2.13
2019-06-27T19:29:20.306Z,2.12
2019-06-27T19:32:14.085Z,2.08
2019-06-27T19:34:48.817Z,2.05
2019-06-27T19:37:25.653Z,2.10
2019-06-27T19:40:00.399Z,1.90
2019-06-27T19:42:34.683Z,1.93
2019-06-27T19:45:09.747Z,2.22
2019-06-27T19:47:44.308Z,1.98
2019-06-27T19:50:19.578Z,1.80
2019-06-27T19:52:55.958Z,1.60
2019-06-27T19:55:30.731Z,1.75
2019-06-27T19:58:04.534Z,1.52
2019-06-27T20:00:39.229Z,1.92
2019-06-27T20:03:13.723Z,2.00
2019-06-27T20:05:48.182Z,2.05
2019-06-27T20:08:23.023Z,1.72
2019-06-27T20:10:57.922Z,1.70
2019-06-27T20:13:32.961Z,2.10
2019-06-27T20:16:07.691Z,1.50
2019-06-27T20:19:01.653Z,1.67
2019-06-27T20:21:36.606Z,1.70
2019-06-27T20:24:30.909Z,1.90
2019-06-27T20:27:05.530Z,2.02
2019-06-27T20:29:40.130Z,2.05
2019-06-27T20:32:15.219Z,2.10
2019-06-27T20:34:49.741Z,1.82
2019-06-27T20:37:26.791Z,2.20
2019-06-27T20:40:00.524Z,2.10
2019-06-27T20:42:34.916Z,2.20
2019-06-27T20:45:09.567Z,1.77
2019-06-27T20:47:44.453Z,1.65
2019-06-27T20:50:18.823Z,1.57
2019-06-27T20:52:53.281Z,1.70
2019-06-27T20:55:28.033Z,1.98
2019-06-27T20:58:02.656Z,1.80
2019-06-27T21:00:36.738Z,2.10
2019-06-27T21:03:11.547Z,1.80
2019-06-27T21:05:46.425Z,1.35
2019-06-27T21:08:21.040Z,1.40
2019-06-27T21:10:55.830Z,1.57
2019-06-27T21:13:30.369Z,1.42
2019-06-27T21:16:04.823Z,1.40
2019-06-27T21:18:39.532Z,1.37
2019-06-27T21:21:14.546Z,1.50
2019-06-27T21:23:49.511Z,1.17
2019-06-27T21:26:24.214Z,1.45
2019-06-27T21:28:58.992Z,1.22
2019-06-27T21:31:33.500Z,1.67
2019-06-27T21:34:07.780Z,1.20
2019-06-27T21:36:42.492Z,1.50
2019-06-27T21:39:17.223Z,1.60
2019-06-27T21:41:51.610Z,1.42
2019-06-27T21:44:26.213Z,1.20
2019-06-27T21:47:20.073Z,1.40
2019-06-27T21:49:54.732Z,1.35
2019-06-27T21:52:29.173Z,1.12
2019-06-27T21:55:03.894Z,1.15
2019-06-27T21:57:38.297Z,1.60
2019-06-27T22:00:12.965Z,1.37
2019-06-27T22:02:48.135Z,1.30
2019-06-27T22:05:22.981Z,1.40
2019-06-27T22:07:57.580Z,1.17
2019-06-27T22:10:32.149Z,1.80
2019-06-27T22:13:06.683Z,1.45
2019-06-27T22:15:40.651Z,1.80
2019-06-27T22:18:15.247Z,1.50
2019-06-27T22:20:50.220Z,1.50
2019-06-27T22:23:24.813Z,1.42
2019-06-27T22:26:00.220Z,1.65
2019-06-27T22:28:35.050Z,1.60
2019-06-27T22:31:09.859Z,1.98
2019-06-27T22:33:44.363Z,1.73
2019-06-27T22:36:19.439Z,2.17
2019-06-27T22:39:10.762Z,1.72
2019-06-27T22:42:01.975Z,2.17
2019-06-27T22:44:53.250Z,2.10
2019-06-27T22:47:45.496Z,2.25
2019-06-27T22:50:47.372Z,2.33
2019-06-27T22:53:24.295Z,2.13
2019-06-27T22:55:58.784Z,2.22
2019-06-27T22:58:33.723Z,2.22
2019-06-27T23:01:08.853Z,1.92
2019-06-27T23:03:43.542Z,2.43
2019-06-27T23:06:18.622Z,2.58
2019-06-27T23:08:53.234Z,2.52
2019-06-27T23:11:27.859Z,2.90
2019-06-27T23:14:02.752Z,2.58
2019-06-27T23:16:38.118Z,2.63
2019-06-27T23:19:12.657Z,3.07
2019-06-27T23:21:47.192Z,3.00
2019-06-27T23:24:21.606Z,2.72
2019-06-27T23:26:56.163Z,2.90
2019-06-27T23:29:30.734Z,3.10
2019-06-27T23:32:05.159Z,3.10
2019-06-27T23:34:39.689Z,2.98
2019-06-27T23:37:14.105Z,3.45
2019-06-27T23:39:48.692Z,3.22
2019-06-27T23:42:23.477Z,3.25
2019-06-27T23:44:57.708Z,3.20
2019-06-27T23:47:32.453Z,3.50
2019-06-27T23:50:06.770Z,3.62
2019-06-27T23:52:42.257Z,3.33
2019-06-27T23:55:16.869Z,3.20
2019-06-27T23:57:51.455Z,3.80
